sensor_id;sensor_type;location;lat;lon;timestamp;P1;durP1;ratioP1;P2;durP2;ratioP2
73170;SDS011;61381;50.118;19.962;2023-04-24T00:03:47;15.55;;;8.70;;
73170;SDS011;61381;50.118;19.962;2023-04-24T00:08:48;15.52;;;8.95;;
73170;SDS011;61381;50.118;19.962;2023-04-24T00:13:49;17.20;;;9.93;;
73170;SDS011;61381;50.118;19.962;2023-04-24T00:18:51;26.13;;;12.80;;
73170;SDS011;61381;50.118;19.962;2023-04-24T00:23:52;24.67;;;12.90;;
73170;SDS011;61381;50.118;19.962;2023-04-24T00:28:53;25.30;;;11.38;;
73170;SDS011;61381;50.118;19.962;2023-04-24T00:33:56;22.52;;;13.10;;
73170;SDS011;61381;50.118;19.962;2023-04-24T00:38:58;33.97;;;14.30;;
73170;SDS011;61381;50.118;19.962;2023-04-24T00:43:59;35.42;;;14.93;;
73170;SDS011;61381;50.118;19.962;2023-04-24T00:49:01;29.90;;;13.00;;
73170;SDS011;61381;50.118;19.962;2023-04-24T00:54:03;53.83;;;21.08;;
73170;SDS011;61381;50.118;19.962;2023-04-24T00:59:04;26.98;;;13.43;;
73170;SDS011;61381;50.118;19.962;2023-04-24T01:04:06;24.00;;;11.02;;
73170;SDS011;61381;50.118;19.962;2023-04-24T01:09:08;24.45;;;11.73;;
73170;SDS011;61381;50.118;19.962;2023-04-24T01:14:11;26.95;;;12.60;;
73170;SDS011;61381;50.118;19.962;2023-04-24T01:19:13;29.00;;;12.70;;
73170;SDS011;61381;50.118;19.962;2023-04-24T01:24:18;21.80;;;11.15;;
73170;SDS011;61381;50.118;19.962;2023-04-24T01:29:19;15.23;;;8.27;;
73170;SDS011;61381;50.118;19.962;2023-04-24T01:34:21;21.75;;;9.77;;
73170;SDS011;61381;50.118;19.962;2023-04-24T01:39:23;25.13;;;11.38;;
73170;SDS011;61381;50.118;19.962;2023-04-24T01:44:24;20.42;;;10.50;;
73170;SDS011;61381;50.118;19.962;2023-04-24T01:49:26;21.25;;;10.68;;
73170;SDS011;61381;50.118;19.962;2023-04-24T01:54:29;15.27;;;9.68;;
73170;SDS011;61381;50.118;19.962;2023-04-24T01:59:30;20.83;;;9.82;;
73170;SDS011;61381;50.118;19.962;2023-04-24T02:04:32;21.05;;;10.95;;
73170;SDS011;61381;50.118;19.962;2023-04-24T02:09:35;20.00;;;9.98;;
73170;SDS011;61381;50.118;19.962;2023-04-24T02:14:36;17.75;;;9.95;;
73170;SDS011;61381;50.118;19.962;2023-04-24T02:19:37;18.23;;;10.10;;
73170;SDS011;61381;50.118;19.962;2023-04-24T02:24:39;21.50;;;10.30;;
73170;SDS011;61381;50.118;19.962;2023-04-24T02:29:40;26.75;;;9.90;;
73170;SDS011;61381;50.118;19.962;2023-04-24T02:34:41;31.05;;;11.00;;
73170;SDS011;61381;50.118;19.962;2023-04-24T02:39:44;17.30;;;9.30;;
73170;SDS011;61381;50.118;19.962;2023-04-24T02:44:45;17.58;;;8.63;;
73170;SDS011;61381;50.118;19.962;2023-04-24T02:49:46;14.68;;;8.77;;
73170;SDS011;61381;50.118;19.962;2023-04-24T02:54:48;14.10;;;8.23;;
73170;SDS011;61381;50.118;19.962;2023-04-24T02:59:49;17.02;;;8.02;;
73170;SDS011;61381;50.118;19.962;2023-04-24T03:04:50;18.35;;;8.15;;
73170;SDS011;61381;50.118;19.962;2023-04-24T03:09:52;16.60;;;9.48;;
73170;SDS011;61381;50.118;19.962;2023-04-24T03:14:53;12.88;;;6.93;;
73170;SDS011;61381;50.118;19.962;2023-04-24T03:19:54;15.65;;;7.60;;
73170;SDS011;61381;50.118;19.962;2023-04-24T03:24:57;20.35;;;9.48;;
73170;SDS011;61381;50.118;19.962;2023-04-24T03:29:58;16.10;;;7.28;;
73170;SDS011;61381;50.118;19.962;2023-04-24T03:34:59;18.20;;;8.80;;
73170;SDS011;61381;50.118;19.962;2023-04-24T03:40:01;15.32;;;7.90;;
73170;SDS011;61381;50.118;19.962;2023-04-24T03:45:03;11.73;;;6.35;;
73170;SDS011;61381;50.118;19.962;2023-04-24T03:50:05;11.02;;;6.72;;
73170;SDS011;61381;50.118;19.962;2023-04-24T03:55:08;10.82;;;5.82;;
73170;SDS011;61381;50.118;19.962;2023-04-24T04:00:10;10.18;;;6.25;;
73170;SDS011;61381;50.118;19.962;2023-04-24T04:05:12;14.55;;;6.13;;
73170;SDS011;61381;50.118;19.962;2023-04-24T04:10:14;9.75;;;6.10;;
73170;SDS011;61381;50.118;19.962;2023-04-24T04:15:15;9.98;;;5.80;;
73170;SDS011;61381;50.118;19.962;2023-04-24T04:20:16;9.57;;;5.80;;
73170;SDS011;61381;50.118;19.962;2023-04-24T04:25:19;9.00;;;4.85;;
73170;SDS011;61381;50.118;19.962;2023-04-24T04:30:20;9.57;;;5.10;;
73170;SDS011;61381;50.118;19.962;2023-04-24T04:35:21;9.75;;;6.60;;
73170;SDS011;61381;50.118;19.962;2023-04-24T04:40:23;11.50;;;6.50;;
73170;SDS011;61381;50.118;19.962;2023-04-24T04:45:24;14.68;;;7.90;;
73170;SDS011;61381;50.118;19.962;2023-04-24T04:50:25;12.15;;;6.90;;
73170;SDS011;61381;50.118;19.962;2023-04-24T04:55:28;10.80;;;6.80;;
73170;SDS011;61381;50.118;19.962;2023-04-24T05:00:29;9.95;;;6.05;;
73170;SDS011;61381;50.118;19.962;2023-04-24T05:05:30;11.35;;;5.40;;
73170;SDS011;61381;50.118;19.962;2023-04-24T05:10:32;9.48;;;5.63;;
73170;SDS011;61381;50.118;19.962;2023-04-24T05:15:33;10.60;;;6.38;;
73170;SDS011;61381;50.118;19.962;2023-04-24T05:20:34;9.40;;;5.97;;
73170;SDS011;61381;50.118;19.962;2023-04-24T05:25:37;10.48;;;6.28;;
73170;SDS011;61381;50.118;19.962;2023-04-24T05:30:38;9.05;;;6.13;;
73170;SDS011;61381;50.118;19.962;2023-04-24T05:35:39;8.75;;;6.28;;
73170;SDS011;61381;50.118;19.962;2023-04-24T05:40:42;8.23;;;6.47;;
73170;SDS011;61381;50.118;19.962;2023-04-24T05:45:43;10.80;;;6.65;;
73170;SDS011;61381;50.118;19.962;2023-04-24T05:50:44;10.00;;;6.90;;
73170;SDS011;61381;50.118;19.962;2023-04-24T05:55:46;13.85;;;6.88;;
73170;SDS011;61381;50.118;19.962;2023-04-24T06:00:48;15.10;;;8.05;;
73170;SDS011;61381;50.118;19.962;2023-04-24T06:05:49;17.55;;;7.07;;
73170;SDS011;61381;50.118;19.962;2023-04-24T06:10:52;11.18;;;6.80;;
73170;SDS011;61381;50.118;19.962;2023-04-24T06:15:53;12.18;;;7.15;;
73170;SDS011;61381;50.118;19.962;2023-04-24T06:20:54;9.88;;;6.43;;
73170;SDS011;61381;50.118;19.962;2023-04-24T06:25:56;11.40;;;6.72;;
73170;SDS011;61381;50.118;19.962;2023-04-24T06:30:57;12.52;;;7.13;;
73170;SDS011;61381;50.118;19.962;2023-04-24T06:35:59;19.60;;;7.57;;
73170;SDS011;61381;50.118;19.962;2023-04-24T06:41:02;15.75;;;6.60;;
73170;SDS011;61381;50.118;19.962;2023-04-24T06:46:03;12.02;;;5.97;;
73170;SDS011;61381;50.118;19.962;2023-04-24T06:51:04;13.57;;;5.95;;
73170;SDS011;61381;50.118;19.962;2023-04-24T06:56:06;12.95;;;6.00;;
73170;SDS011;61381;50.118;19.962;2023-04-24T07:01:07;9.48;;;5.93;;
73170;SDS011;61381;50.118;19.962;2023-04-24T07:06:09;19.08;;;7.20;;
73170;SDS011;61381;50.118;19.962;2023-04-24T07:11:11;11.65;;;6.25;;
73170;SDS011;61381;50.118;19.962;2023-04-24T07:16:12;17.17;;;6.85;;
73170;SDS011;61381;50.118;19.962;2023-04-24T07:21:13;12.93;;;6.93;;
73170;SDS011;61381;50.118;19.962;2023-04-24T07:26:16;15.77;;;6.57;;
73170;SDS011;61381;50.118;19.962;2023-04-24T07:31:17;14.55;;;6.75;;
73170;SDS011;61381;50.118;19.962;2023-04-24T07:36:18;15.70;;;6.80;;
73170;SDS011;61381;50.118;19.962;2023-04-24T07:41:20;6.15;;;4.55;;
73170;SDS011;61381;50.118;19.962;2023-04-24T07:46:21;6.22;;;4.13;;
73170;SDS011;61381;50.118;19.962;2023-04-24T07:51:23;6.07;;;4.43;;
73170;SDS011;61381;50.118;19.962;2023-04-24T07:56:25;6.55;;;4.10;;
73170;SDS011;61381;50.118;19.962;2023-04-24T08:01:26;6.45;;;4.30;;
73170;SDS011;61381;50.118;19.962;2023-04-24T08:06:27;6.43;;;3.78;;
73170;SDS011;61381;50.118;19.962;2023-04-24T08:11:29;5.72;;;3.83;;
73170;SDS011;61381;50.118;19.962;2023-04-24T08:16:31;6.88;;;3.83;;
73170;SDS011;61381;50.118;19.962;2023-04-24T08:21:33;6.25;;;3.90;;
73170;SDS011;61381;50.118;19.962;2023-04-24T08:26:35;6.38;;;4.50;;
73170;SDS011;61381;50.118;19.962;2023-04-24T08:31:36;4.32;;;3.65;;
73170;SDS011;61381;50.118;19.962;2023-04-24T08:36:37;6.85;;;4.07;;
73170;SDS011;61381;50.118;19.962;2023-04-24T08:41:41;6.07;;;4.00;;
73170;SDS011;61381;50.118;19.962;2023-04-24T08:46:43;4.95;;;3.85;;
73170;SDS011;61381;50.118;19.962;2023-04-24T08:51:45;5.43;;;3.25;;
73170;SDS011;61381;50.118;19.962;2023-04-24T08:56:48;9.80;;;3.90;;
73170;SDS011;61381;50.118;19.962;2023-04-24T09:01:49;4.20;;;3.45;;
73170;SDS011;61381;50.118;19.962;2023-04-24T09:06:52;4.90;;;3.45;;
73170;SDS011;61381;50.118;19.962;2023-04-24T09:11:58;4.78;;;3.53;;
73170;SDS011;61381;50.118;19.962;2023-04-24T09:16:59;3.42;;;3.13;;
73170;SDS011;61381;50.118;19.962;2023-04-24T09:22:00;4.57;;;3.25;;
73170;SDS011;61381;50.118;19.962;2023-04-24T09:27:07;4.80;;;3.55;;
73170;SDS011;61381;50.118;19.962;2023-04-24T09:32:20;5.75;;;3.83;;
73170;SDS011;61381;50.118;19.962;2023-04-24T09:37:27;4.15;;;3.28;;
73170;SDS011;61381;50.118;19.962;2023-04-24T09:42:30;4.03;;;3.63;;
73170;SDS011;61381;50.118;19.962;2023-04-24T09:47:35;6.13;;;3.70;;
73170;SDS011;61381;50.118;19.962;2023-04-24T09:52:39;4.57;;;3.40;;
73170;SDS011;61381;50.118;19.962;2023-04-24T09:57:48;6.20;;;3.58;;
73170;SDS011;61381;50.118;19.962;2023-04-24T10:02:50;6.82;;;3.72;;
73170;SDS011;61381;50.118;19.962;2023-04-24T10:13:01;5.82;;;4.03;;
73170;SDS011;61381;50.118;19.962;2023-04-24T10:18:04;5.03;;;3.67;;
73170;SDS011;61381;50.118;19.962;2023-04-24T10:23:06;5.70;;;3.55;;
73170;SDS011;61381;50.118;19.962;2023-04-24T10:28:08;5.25;;;3.70;;
73170;SDS011;61381;50.118;19.962;2023-04-24T10:33:10;5.50;;;3.17;;
73170;SDS011;61381;50.118;19.962;2023-04-24T10:38:13;5.22;;;4.03;;
73170;SDS011;61381;50.118;19.962;2023-04-24T10:43:18;3.92;;;3.08;;
73170;SDS011;61381;50.118;19.962;2023-04-24T10:48:19;5.88;;;3.22;;
73170;SDS011;61381;50.118;19.962;2023-04-24T10:53:28;4.10;;;2.90;;
73170;SDS011;61381;50.118;19.962;2023-04-24T10:58:37;3.65;;;2.70;;
73170;SDS011;61381;50.118;19.962;2023-04-24T11:03:40;3.17;;;2.85;;
73170;SDS011;61381;50.118;19.962;2023-04-24T11:08:51;5.57;;;3.30;;
73170;SDS011;61381;50.118;19.962;2023-04-24T11:14:04;5.25;;;3.15;;
73170;SDS011;61381;50.118;19.962;2023-04-24T11:19:07;7.00;;;3.50;;
73170;SDS011;61381;50.118;19.962;2023-04-24T11:24:23;6.60;;;3.97;;
73170;SDS011;61381;50.118;19.962;2023-04-24T11:29:42;4.93;;;3.28;;
73170;SDS011;61381;50.118;19.962;2023-04-24T11:34:45;3.95;;;3.53;;
73170;SDS011;61381;50.118;19.962;2023-04-24T11:39:50;4.30;;;3.30;;
73170;SDS011;61381;50.118;19.962;2023-04-24T11:44:53;6.93;;;3.25;;
73170;SDS011;61381;50.118;19.962;2023-04-24T11:49:55;5.25;;;3.13;;
73170;SDS011;61381;50.118;19.962;2023-04-24T11:54:56;4.20;;;3.80;;
73170;SDS011;61381;50.118;19.962;2023-04-24T11:59:59;4.60;;;3.35;;
73170;SDS011;61381;50.118;19.962;2023-04-24T12:05:00;4.75;;;3.53;;
73170;SDS011;61381;50.118;19.962;2023-04-24T12:10:01;5.80;;;4.00;;
73170;SDS011;61381;50.118;19.962;2023-04-24T12:15:06;4.50;;;3.58;;
73170;SDS011;61381;50.118;19.962;2023-04-24T12:20:08;4.32;;;3.40;;
73170;SDS011;61381;50.118;19.962;2023-04-24T12:25:10;5.43;;;3.85;;
73170;SDS011;61381;50.118;19.962;2023-04-24T12:30:14;5.78;;;3.70;;
73170;SDS011;61381;50.118;19.962;2023-04-24T12:35:18;3.85;;;3.38;;
73170;SDS011;61381;50.118;19.962;2023-04-24T12:40:21;4.88;;;3.42;;
73170;SDS011;61381;50.118;19.962;2023-04-24T12:50:28;4.47;;;3.50;;
73170;SDS011;61381;50.118;19.962;2023-04-24T12:55:29;10.30;;;4.00;;
73170;SDS011;61381;50.118;19.962;2023-04-24T13:00:31;9.35;;;4.75;;
73170;SDS011;61381;50.118;19.962;2023-04-24T13:05:33;12.48;;;5.20;;
73170;SDS011;61381;50.118;19.962;2023-04-24T13:10:34;14.40;;;5.85;;
73170;SDS011;61381;50.118;19.962;2023-04-24T13:15:36;8.80;;;4.20;;
73170;SDS011;61381;50.118;19.962;2023-04-24T13:20:39;11.20;;;4.93;;
73170;SDS011;61381;50.118;19.962;2023-04-24T13:25:40;8.32;;;4.28;;
73170;SDS011;61381;50.118;19.962;2023-04-24T13:30:43;7.32;;;4.90;;
73170;SDS011;61381;50.118;19.962;2023-04-24T13:35:44;8.23;;;5.38;;
73170;SDS011;61381;50.118;19.962;2023-04-24T13:40:45;7.20;;;4.68;;
73170;SDS011;61381;50.118;19.962;2023-04-24T13:45:48;6.63;;;4.25;;
73170;SDS011;61381;50.118;19.962;2023-04-24T13:50:49;11.13;;;4.35;;
73170;SDS011;61381;50.118;19.962;2023-04-24T13:55:50;5.05;;;3.42;;
73170;SDS011;61381;50.118;19.962;2023-04-24T14:00:52;6.80;;;3.78;;
73170;SDS011;61381;50.118;19.962;2023-04-24T14:05:53;5.38;;;3.88;;
73170;SDS011;61381;50.118;19.962;2023-04-24T14:10:54;5.30;;;3.83;;
73170;SDS011;61381;50.118;19.962;2023-04-24T14:15:57;4.22;;;3.40;;
73170;SDS011;61381;50.118;19.962;2023-04-24T14:20:58;6.00;;;3.58;;
73170;SDS011;61381;50.118;19.962;2023-04-24T14:25:59;6.22;;;2.97;;
73170;SDS011;61381;50.118;19.962;2023-04-24T14:31:02;9.32;;;3.95;;
73170;SDS011;61381;50.118;19.962;2023-04-24T14:36:03;9.23;;;3.47;;
73170;SDS011;61381;50.118;19.962;2023-04-24T14:41:04;7.43;;;3.50;;
73170;SDS011;61381;50.118;19.962;2023-04-24T14:46:06;14.45;;;6.93;;
73170;SDS011;61381;50.118;19.962;2023-04-24T14:51:07;4.88;;;3.65;;
73170;SDS011;61381;50.118;19.962;2023-04-24T14:56:09;7.05;;;2.92;;
73170;SDS011;61381;50.118;19.962;2023-04-24T15:01:11;4.72;;;2.97;;
73170;SDS011;61381;50.118;19.962;2023-04-24T15:06:12;7.30;;;3.47;;
73170;SDS011;61381;50.118;19.962;2023-04-24T15:11:13;6.97;;;3.50;;
73170;SDS011;61381;50.118;19.962;2023-04-24T15:16:16;4.70;;;3.05;;
73170;SDS011;61381;50.118;19.962;2023-04-24T15:21:17;5.25;;;2.90;;
73170;SDS011;61381;50.118;19.962;2023-04-24T15:26:18;3.92;;;2.72;;
73170;SDS011;61381;50.118;19.962;2023-04-24T15:31:20;3.92;;;2.42;;
73170;SDS011;61381;50.118;19.962;2023-04-24T15:36:21;4.38;;;2.30;;
73170;SDS011;61381;50.118;19.962;2023-04-24T15:41:22;4.45;;;3.10;;
73170;SDS011;61381;50.118;19.962;2023-04-24T15:46:25;3.45;;;2.35;;
73170;SDS011;61381;50.118;19.962;2023-04-24T15:51:26;3.88;;;2.38;;
73170;SDS011;61381;50.118;19.962;2023-04-24T15:56:27;4.15;;;2.75;;
73170;SDS011;61381;50.118;19.962;2023-04-24T16:01:29;4.22;;;2.53;;
73170;SDS011;61381;50.118;19.962;2023-04-24T16:06:30;3.67;;;2.58;;
73170;SDS011;61381;50.118;19.962;2023-04-24T16:11:32;5.25;;;2.75;;
73170;SDS011;61381;50.118;19.962;2023-04-24T16:16:35;4.57;;;3.22;;
73170;SDS011;61381;50.118;19.962;2023-04-24T16:21:36;5.30;;;2.92;;
73170;SDS011;61381;50.118;19.962;2023-04-24T16:26:37;2.55;;;1.83;;
73170;SDS011;61381;50.118;19.962;2023-04-24T16:31:40;2.42;;;1.80;;
73170;SDS011;61381;50.118;19.962;2023-04-24T16:36:41;3.47;;;1.70;;
73170;SDS011;61381;50.118;19.962;2023-04-24T16:41:42;3.47;;;1.63;;
73170;SDS011;61381;50.118;19.962;2023-04-24T16:46:45;3.17;;;1.80;;
73170;SDS011;61381;50.118;19.962;2023-04-24T16:51:46;2.38;;;1.63;;
73170;SDS011;61381;50.118;19.962;2023-04-24T16:56:47;2.00;;;1.48;;
73170;SDS011;61381;50.118;19.962;2023-04-24T17:01:49;2.85;;;1.73;;
73170;SDS011;61381;50.118;19.962;2023-04-24T17:06:50;2.00;;;1.80;;
73170;SDS011;61381;50.118;19.962;2023-04-24T17:11:51;2.40;;;1.80;;
73170;SDS011;61381;50.118;19.962;2023-04-24T17:16:53;2.70;;;1.90;;
73170;SDS011;61381;50.118;19.962;2023-04-24T17:21:54;2.60;;;2.10;;
73170;SDS011;61381;50.118;19.962;2023-04-24T17:26:55;2.78;;;2.10;;
73170;SDS011;61381;50.118;19.962;2023-04-24T17:31:58;3.47;;;2.33;;
73170;SDS011;61381;50.118;19.962;2023-04-24T17:36:59;4.38;;;2.50;;
73170;SDS011;61381;50.118;19.962;2023-04-24T17:42:00;4.82;;;2.50;;
73170;SDS011;61381;50.118;19.962;2023-04-24T17:47:03;3.90;;;2.08;;
73170;SDS011;61381;50.118;19.962;2023-04-24T17:52:04;3.85;;;1.92;;
73170;SDS011;61381;50.118;19.962;2023-04-24T17:57:05;5.78;;;2.20;;
73170;SDS011;61381;50.118;19.962;2023-04-24T18:02:08;4.40;;;3.03;;
73170;SDS011;61381;50.118;19.962;2023-04-24T18:07:09;5.53;;;3.22;;
73170;SDS011;61381;50.118;19.962;2023-04-24T18:12:10;5.05;;;3.15;;
73170;SDS011;61381;50.118;19.962;2023-04-24T18:17:12;5.43;;;3.15;;
73170;SDS011;61381;50.118;19.962;2023-04-24T18:22:13;5.75;;;3.10;;
73170;SDS011;61381;50.118;19.962;2023-04-24T18:27:14;5.03;;;3.25;;
73170;SDS011;61381;50.118;19.962;2023-04-24T18:32:17;4.65;;;3.50;;
73170;SDS011;61381;50.118;19.962;2023-04-24T18:37:18;5.80;;;3.67;;
73170;SDS011;61381;50.118;19.962;2023-04-24T18:42:19;6.80;;;3.70;;
73170;SDS011;61381;50.118;19.962;2023-04-24T18:47:21;6.03;;;3.95;;
73170;SDS011;61381;50.118;19.962;2023-04-24T18:52:23;7.55;;;4.75;;
73170;SDS011;61381;50.118;19.962;2023-04-24T18:57:24;8.02;;;4.40;;
73170;SDS011;61381;50.118;19.962;2023-04-24T19:02:26;7.47;;;4.80;;
73170;SDS011;61381;50.118;19.962;2023-04-24T19:07:28;9.73;;;5.55;;
73170;SDS011;61381;50.118;19.962;2023-04-24T19:12:29;9.35;;;4.70;;
73170;SDS011;61381;50.118;19.962;2023-04-24T19:17:31;7.40;;;4.80;;
73170;SDS011;61381;50.118;19.962;2023-04-24T19:22:33;7.63;;;4.45;;
73170;SDS011;61381;50.118;19.962;2023-04-24T19:27:34;7.80;;;4.32;;
73170;SDS011;61381;50.118;19.962;2023-04-24T19:32:36;7.82;;;4.15;;
73170;SDS011;61381;50.118;19.962;2023-04-24T19:37:37;7.20;;;5.07;;
73170;SDS011;61381;50.118;19.962;2023-04-24T19:42:38;8.18;;;4.90;;
73170;SDS011;61381;50.118;19.962;2023-04-24T19:47:40;7.10;;;4.63;;
73170;SDS011;61381;50.118;19.962;2023-04-24T19:52:41;11.27;;;5.72;;
73170;SDS011;61381;50.118;19.962;2023-04-24T19:57:42;8.68;;;6.05;;
73170;SDS011;61381;50.118;19.962;2023-04-24T20:02:45;9.20;;;5.75;;
73170;SDS011;61381;50.118;19.962;2023-04-24T20:07:46;10.35;;;6.90;;
73170;SDS011;61381;50.118;19.962;2023-04-24T20:12:47;11.10;;;6.32;;
73170;SDS011;61381;50.118;19.962;2023-04-24T20:17:49;10.68;;;6.93;;
73170;SDS011;61381;50.118;19.962;2023-04-24T20:22:50;9.60;;;6.20;;
73170;SDS011;61381;50.118;19.962;2023-04-24T20:27:51;9.05;;;5.57;;
73170;SDS011;61381;50.118;19.962;2023-04-24T20:32:54;9.48;;;5.32;;
73170;SDS011;61381;50.118;19.962;2023-04-24T20:37:55;11.48;;;5.05;;
73170;SDS011;61381;50.118;19.962;2023-04-24T20:42:56;8.95;;;5.20;;
73170;SDS011;61381;50.118;19.962;2023-04-24T20:47:58;7.28;;;4.82;;
73170;SDS011;61381;50.118;19.962;2023-04-24T20:52:59;8.95;;;5.25;;
73170;SDS011;61381;50.118;19.962;2023-04-24T20:58:00;11.10;;;5.68;;
73170;SDS011;61381;50.118;19.962;2023-04-24T21:03:03;9.55;;;5.78;;
73170;SDS011;61381;50.118;19.962;2023-04-24T21:08:04;9.52;;;5.30;;
73170;SDS011;61381;50.118;19.962;2023-04-24T21:13:05;11.35;;;6.30;;
73170;SDS011;61381;50.118;19.962;2023-04-24T21:18:08;8.48;;;5.20;;
73170;SDS011;61381;50.118;19.962;2023-04-24T21:23:11;10.52;;;5.80;;
73170;SDS011;61381;50.118;19.962;2023-04-24T21:28:12;13.68;;;5.43;;
73170;SDS011;61381;50.118;19.962;2023-04-24T21:33:14;9.10;;;5.45;;
73170;SDS011;61381;50.118;19.962;2023-04-24T21:38:16;11.07;;;5.70;;
73170;SDS011;61381;50.118;19.962;2023-04-24T21:43:17;9.73;;;6.10;;
73170;SDS011;61381;50.118;19.962;2023-04-24T21:48:20;11.80;;;7.03;;
73170;SDS011;61381;50.118;19.962;2023-04-24T21:53:20;15.85;;;8.48;;
73170;SDS011;61381;50.118;19.962;2023-04-24T21:58:21;16.00;;;9.77;;
73170;SDS011;61381;50.118;19.962;2023-04-24T22:03:24;15.63;;;9.38;;
73170;SDS011;61381;50.118;19.962;2023-04-24T22:08:25;16.02;;;9.85;;
73170;SDS011;61381;50.118;19.962;2023-04-24T22:13:26;19.42;;;10.57;;
73170;SDS011;61381;50.118;19.962;2023-04-24T22:18:29;21.50;;;11.18;;
73170;SDS011;61381;50.118;19.962;2023-04-24T22:23:30;23.38;;;13.05;;
73170;SDS011;61381;50.118;19.962;2023-04-24T22:28:31;26.35;;;14.20;;
73170;SDS011;61381;50.118;19.962;2023-04-24T22:33:33;31.13;;;16.40;;
73170;SDS011;61381;50.118;19.962;2023-04-24T22:38:34;35.67;;;17.58;;
73170;SDS011;61381;50.118;19.962;2023-04-24T22:43:35;35.22;;;17.77;;
73170;SDS011;61381;50.118;19.962;2023-04-24T22:48:38;39.55;;;19.30;;
73170;SDS011;61381;50.118;19.962;2023-04-24T22:53:39;37.20;;;19.38;;
73170;SDS011;61381;50.118;19.962;2023-04-24T22:58:40;41.17;;;20.52;;
73170;SDS011;61381;50.118;19.962;2023-04-24T23:03:42;45.63;;;23.13;;
73170;SDS011;61381;50.118;19.962;2023-04-24T23:08:44;48.13;;;22.63;;
73170;SDS011;61381;50.118;19.962;2023-04-24T23:13:45;44.88;;;21.95;;
73170;SDS011;61381;50.118;19.962;2023-04-24T23:18:48;46.20;;;22.02;;
73170;SDS011;61381;50.118;19.962;2023-04-24T23:23:49;46.15;;;23.73;;
73170;SDS011;61381;50.118;19.962;2023-04-24T23:28:50;46.70;;;22.45;;
73170;SDS011;61381;50.118;19.962;2023-04-24T23:33:52;45.15;;;22.42;;
73170;SDS011;61381;50.118;19.962;2023-04-24T23:38:53;37.05;;;19.95;;
73170;SDS011;61381;50.118;19.962;2023-04-24T23:43:54;48.67;;;23.30;;
73170;SDS011;61381;50.118;19.962;2023-04-24T23:48:57;44.58;;;21.75;;
73170;SDS011;61381;50.118;19.962;2023-04-24T23:53:58;47.65;;;22.85;;
73170;SDS011;61381;50.118;19.962;2023-04-24T23:58:59;45.90;;;22.25;;
